sensor_id;sensor_type;location;lat;lon;timestamp;temperature;humidity
3648;DHT22;1840;48.892;15.312;2024-02-23T00:01:53;5.10;99.90
3648;DHT22;1840;48.892;15.312;2024-02-23T00:04:22;5.10;99.90
3648;DHT22;1840;48.892;15.312;2024-02-23T00:06:50;5.10;99.90
3648;DHT22;1840;48.892;15.312;2024-02-23T00:09:20;5.10;99.90
3648;DHT22;1840;48.892;15.312;2024-02-23T00:11:49;5.00;99.90
3648;DHT22;1840;48.892;15.312;2024-02-23T00:14:17;5.10;99.90
3648;DHT22;1840;48.892;15.312;2024-02-23T00:16:47;5.20;99.90
3648;DHT22;1840;48.892;15.312;2024-02-23T00:19:16;5.10;99.90
3648;DHT22;1840;48.892;15.312;2024-02-23T00:21:46;5.10;99.90
3648;DHT22;1840;48.892;15.312;2024-02-23T00:24:17;5.20;99.90
3648;DHT22;1840;48.892;15.312;2024-02-23T00:26:50;5.30;99.90
3648;DHT22;1840;48.892;15.312;2024-02-23T00:29:18;5.30;99.90
3648;DHT22;1840;48.892;15.312;2024-02-23T00:31:48;5.30;99.90
3648;DHT22;1840;48.892;15.312;2024-02-23T00:34:17;5.30;99.90
3648;DHT22;1840;48.892;15.312;2024-02-23T00:36:45;5.30;99.90
3648;DHT22;1840;48.892;15.312;2024-02-23T00:39:15;5.30;99.90
3648;DHT22;1840;48.892;15.312;2024-02-23T00:41:43;5.30;99.90
3648;DHT22;1840;48.892;15.312;2024-02-23T00:44:13;5.40;99.90
3648;DHT22;1840;48.892;15.312;2024-02-23T00:46:42;5.30;99.90
3648;DHT22;1840;48.892;15.312;2024-02-23T00:49:10;5.30;99.90
3648;DHT22;1840;48.892;15.312;2024-02-23T00:51:39;5.30;99.90
3648;DHT22;1840;48.892;15.312;2024-02-23T00:54:07;5.30;99.90
3648;DHT22;1840;48.892;15.312;2024-02-23T00:56:36;5.20;99.90
3648;DHT22;1840;48.892;15.312;2024-02-23T00:59:18;5.10;99.90
3648;DHT22;1840;48.892;15.312;2024-02-23T01:01:48;5.20;99.90
3648;DHT22;1840;48.892;15.312;2024-02-23T01:04:16;5.20;99.90
3648;DHT22;1840;48.892;15.312;2024-02-23T01:06:44;5.40;99.90
3648;DHT22;1840;48.892;15.312;2024-02-23T01:09:14;5.40;99.90
3648;DHT22;1840;48.892;15.312;2024-02-23T01:11:43;5.50;99.90
3648;DHT22;1840;48.892;15.312;2024-02-23T01:14:12;5.50;99.90
3648;DHT22;1840;48.892;15.312;2024-02-23T01:16:42;5.30;99.90
3648;DHT22;1840;48.892;15.312;2024-02-23T01:19:11;5.20;99.90
3648;DHT22;1840;48.892;15.312;2024-02-23T01:21:40;5.20;99.90
3648;DHT22;1840;48.892;15.312;2024-02-23T01:24:09;5.30;99.90
3648;DHT22;1840;48.892;15.312;2024-02-23T01:26:37;5.20;99.90
3648;DHT22;1840;48.892;15.312;2024-02-23T01:29:09;5.30;99.90
3648;DHT22;1840;48.892;15.312;2024-02-23T01:31:37;5.30;99.90
3648;DHT22;1840;48.892;15.312;2024-02-23T01:34:08;5.30;99.90
3648;DHT22;1840;48.892;15.312;2024-02-23T01:36:36;5.20;99.90
3648;DHT22;1840;48.892;15.312;2024-02-23T01:39:06;5.20;99.90
3648;DHT22;1840;48.892;15.312;2024-02-23T01:41:34;5.20;99.90
3648;DHT22;1840;48.892;15.312;2024-02-23T01:44:03;5.20;99.90
3648;DHT22;1840;48.892;15.312;2024-02-23T01:46:32;5.20;99.90
3648;DHT22;1840;48.892;15.312;2024-02-23T01:49:03;5.20;99.90
3648;DHT22;1840;48.892;15.312;2024-02-23T01:51:33;5.20;99.90
3648;DHT22;1840;48.892;15.312;2024-02-23T01:54:03;5.10;99.90
3648;DHT22;1840;48.892;15.312;2024-02-23T01:56:32;5.20;99.90
3648;DHT22;1840;48.892;15.312;2024-02-23T01:59:04;5.30;99.90
3648;DHT22;1840;48.892;15.312;2024-02-23T02:01:32;5.30;99.90
3648;DHT22;1840;48.892;15.312;2024-02-23T02:04:00;5.30;99.90
3648;DHT22;1840;48.892;15.312;2024-02-23T02:06:29;5.30;99.90
3648;DHT22;1840;48.892;15.312;2024-02-23T02:08:59;5.40;99.90
3648;DHT22;1840;48.892;15.312;2024-02-23T02:11:27;5.30;99.90
3648;DHT22;1840;48.892;15.312;2024-02-23T02:13:56;5.30;99.90
3648;DHT22;1840;48.892;15.312;2024-02-23T02:16:25;5.20;99.90
3648;DHT22;1840;48.892;15.312;2024-02-23T02:18:54;5.30;99.90
3648;DHT22;1840;48.892;15.312;2024-02-23T02:21:22;5.30;99.90
3648;DHT22;1840;48.892;15.312;2024-02-23T02:23:52;5.30;99.90
3648;DHT22;1840;48.892;15.312;2024-02-23T02:26:22;5.30;99.90
3648;DHT22;1840;48.892;15.312;2024-02-23T02:28:50;5.30;99.90
3648;DHT22;1840;48.892;15.312;2024-02-23T02:31:19;5.30;99.90
3648;DHT22;1840;48.892;15.312;2024-02-23T02:33:47;5.30;99.90
3648;DHT22;1840;48.892;15.312;2024-02-23T02:36:16;5.30;99.90
3648;DHT22;1840;48.892;15.312;2024-02-23T02:38:44;5.30;99.90
3648;DHT22;1840;48.892;15.312;2024-02-23T02:41:13;5.30;99.90
3648;DHT22;1840;48.892;15.312;2024-02-23T02:43:43;5.30;99.90
3648;DHT22;1840;48.892;15.312;2024-02-23T02:46:12;5.20;99.90
3648;DHT22;1840;48.892;15.312;2024-02-23T02:48:41;5.30;99.90
3648;DHT22;1840;48.892;15.312;2024-02-23T02:51:10;5.30;99.90
3648;DHT22;1840;48.892;15.312;2024-02-23T02:53:38;5.20;99.90
3648;DHT22;1840;48.892;15.312;2024-02-23T02:56:07;5.20;99.90
3648;DHT22;1840;48.892;15.312;2024-02-23T02:58:35;5.10;99.90
3648;DHT22;1840;48.892;15.312;2024-02-23T03:01:05;5.10;99.90
3648;DHT22;1840;48.892;15.312;2024-02-23T03:03:34;4.90;99.90
3648;DHT22;1840;48.892;15.312;2024-02-23T03:06:03;5.00;99.90
3648;DHT22;1840;48.892;15.312;2024-02-23T03:08:33;5.00;99.90
3648;DHT22;1840;48.892;15.312;2024-02-23T03:11:02;5.00;99.90
3648;DHT22;1840;48.892;15.312;2024-02-23T03:13:31;5.00;99.90
3648;DHT22;1840;48.892;15.312;2024-02-23T03:15:59;4.90;99.90
3648;DHT22;1840;48.892;15.312;2024-02-23T03:18:29;4.90;99.90
3648;DHT22;1840;48.892;15.312;2024-02-23T03:20:57;4.90;99.90
3648;DHT22;1840;48.892;15.312;2024-02-23T03:23:26;4.90;99.90
3648;DHT22;1840;48.892;15.312;2024-02-23T03:25:55;4.80;99.90
3648;DHT22;1840;48.892;15.312;2024-02-23T03:28:24;4.80;99.90
3648;DHT22;1840;48.892;15.312;2024-02-23T03:30:52;4.80;99.90
3648;DHT22;1840;48.892;15.312;2024-02-23T03:33:21;4.80;99.90
3648;DHT22;1840;48.892;15.312;2024-02-23T03:35:51;4.80;99.90
3648;DHT22;1840;48.892;15.312;2024-02-23T03:38:19;4.70;99.90
3648;DHT22;1840;48.892;15.312;2024-02-23T03:40:47;4.80;99.90
3648;DHT22;1840;48.892;15.312;2024-02-23T03:43:16;4.80;99.90
3648;DHT22;1840;48.892;15.312;2024-02-23T03:45:45;4.80;99.90
3648;DHT22;1840;48.892;15.312;2024-02-23T03:48:13;4.80;99.90
3648;DHT22;1840;48.892;15.312;2024-02-23T03:50:42;5.00;99.90
3648;DHT22;1840;48.892;15.312;2024-02-23T03:53:11;5.10;99.90
3648;DHT22;1840;48.892;15.312;2024-02-23T03:55:40;5.10;99.90
3648;DHT22;1840;48.892;15.312;2024-02-23T03:58:08;5.20;99.90
3648;DHT22;1840;48.892;15.312;2024-02-23T04:00:37;5.00;99.90
3648;DHT22;1840;48.892;15.312;2024-02-23T04:03:05;5.00;99.90
3648;DHT22;1840;48.892;15.312;2024-02-23T04:05:34;4.90;99.90
3648;DHT22;1840;48.892;15.312;2024-02-23T04:08:04;5.00;99.90
3648;DHT22;1840;48.892;15.312;2024-02-23T04:10:35;5.10;99.90
3648;DHT22;1840;48.892;15.312;2024-02-23T04:13:03;5.00;99.90
3648;DHT22;1840;48.892;15.312;2024-02-23T04:15:32;5.00;99.90
3648;DHT22;1840;48.892;15.312;2024-02-23T04:18:00;4.90;99.90
3648;DHT22;1840;48.892;15.312;2024-02-23T04:20:29;5.00;99.90
3648;DHT22;1840;48.892;15.312;2024-02-23T04:22:58;5.00;99.90
3648;DHT22;1840;48.892;15.312;2024-02-23T04:25:26;4.90;99.90
3648;DHT22;1840;48.892;15.312;2024-02-23T04:27:56;4.80;99.90
3648;DHT22;1840;48.892;15.312;2024-02-23T04:30:25;4.70;99.90
3648;DHT22;1840;48.892;15.312;2024-02-23T04:32:54;4.70;99.90
3648;DHT22;1840;48.892;15.312;2024-02-23T04:35:22;4.70;99.90
3648;DHT22;1840;48.892;15.312;2024-02-23T04:37:51;4.70;99.90
3648;DHT22;1840;48.892;15.312;2024-02-23T04:40:22;4.80;99.90
3648;DHT22;1840;48.892;15.312;2024-02-23T04:42:51;5.00;99.90
3648;DHT22;1840;48.892;15.312;2024-02-23T04:45:21;5.10;99.90
3648;DHT22;1840;48.892;15.312;2024-02-23T04:47:50;5.10;99.90
3648;DHT22;1840;48.892;15.312;2024-02-23T04:50:18;5.20;99.90
3648;DHT22;1840;48.892;15.312;2024-02-23T04:52:47;5.30;99.90
3648;DHT22;1840;48.892;15.312;2024-02-23T04:55:17;5.30;99.90
3648;DHT22;1840;48.892;15.312;2024-02-23T04:57:45;5.40;99.90
3648;DHT22;1840;48.892;15.312;2024-02-23T05:00:14;5.40;99.90
3648;DHT22;1840;48.892;15.312;2024-02-23T05:02:45;5.40;99.90
3648;DHT22;1840;48.892;15.312;2024-02-23T05:05:13;5.50;99.90
3648;DHT22;1840;48.892;15.312;2024-02-23T05:07:42;5.50;99.90
3648;DHT22;1840;48.892;15.312;2024-02-23T05:10:10;5.50;99.90
3648;DHT22;1840;48.892;15.312;2024-02-23T05:12:39;5.40;99.90
3648;DHT22;1840;48.892;15.312;2024-02-23T05:15:08;5.30;99.90
3648;DHT22;1840;48.892;15.312;2024-02-23T05:17:38;5.30;99.90
3648;DHT22;1840;48.892;15.312;2024-02-23T05:20:09;5.30;99.90
3648;DHT22;1840;48.892;15.312;2024-02-23T05:22:38;5.20;99.90
3648;DHT22;1840;48.892;15.312;2024-02-23T05:25:07;5.20;99.90
3648;DHT22;1840;48.892;15.312;2024-02-23T05:27:36;5.30;99.90
3648;DHT22;1840;48.892;15.312;2024-02-23T05:30:06;5.10;99.90
3648;DHT22;1840;48.892;15.312;2024-02-23T05:32:35;5.20;99.90
3648;DHT22;1840;48.892;15.312;2024-02-23T05:35:05;5.30;99.90
3648;DHT22;1840;48.892;15.312;2024-02-23T05:37:35;5.30;99.90
3648;DHT22;1840;48.892;15.312;2024-02-23T05:40:05;5.30;99.90
3648;DHT22;1840;48.892;15.312;2024-02-23T05:42:38;5.40;99.90
3648;DHT22;1840;48.892;15.312;2024-02-23T05:45:07;5.30;99.90
3648;DHT22;1840;48.892;15.312;2024-02-23T05:47:36;5.20;99.90
3648;DHT22;1840;48.892;15.312;2024-02-23T05:50:05;5.10;99.90
3648;DHT22;1840;48.892;15.312;2024-02-23T05:52:37;5.10;99.90
3648;DHT22;1840;48.892;15.312;2024-02-23T05:55:06;5.20;99.90
3648;DHT22;1840;48.892;15.312;2024-02-23T05:57:35;5.10;99.90
3648;DHT22;1840;48.892;15.312;2024-02-23T06:00:05;5.10;99.90
3648;DHT22;1840;48.892;15.312;2024-02-23T06:02:34;5.10;99.90
3648;DHT22;1840;48.892;15.312;2024-02-23T06:05:03;5.20;99.90
3648;DHT22;1840;48.892;15.312;2024-02-23T06:07:35;5.30;99.90
3648;DHT22;1840;48.892;15.312;2024-02-23T06:10:07;5.30;99.90
3648;DHT22;1840;48.892;15.312;2024-02-23T06:12:35;5.30;99.90
3648;DHT22;1840;48.892;15.312;2024-02-23T06:15:06;5.20;99.90
3648;DHT22;1840;48.892;15.312;2024-02-23T06:17:35;5.20;99.90
3648;DHT22;1840;48.892;15.312;2024-02-23T06:20:03;5.20;99.90
3648;DHT22;1840;48.892;15.312;2024-02-23T06:22:33;5.20;99.90
3648;DHT22;1840;48.892;15.312;2024-02-23T06:25:02;5.10;99.90
3648;DHT22;1840;48.892;15.312;2024-02-23T06:27:32;4.90;99.90
3648;DHT22;1840;48.892;15.312;2024-02-23T06:30:01;4.90;99.90
3648;DHT22;1840;48.892;15.312;2024-02-23T06:32:29;5.00;99.90
3648;DHT22;1840;48.892;15.312;2024-02-23T06:34:58;5.00;99.90
3648;DHT22;1840;48.892;15.312;2024-02-23T06:37:27;5.00;99.90
3648;DHT22;1840;48.892;15.312;2024-02-23T06:39:55;5.00;99.90
3648;DHT22;1840;48.892;15.312;2024-02-23T06:42:25;4.90;99.90
3648;DHT22;1840;48.892;15.312;2024-02-23T06:44:55;4.80;99.90
3648;DHT22;1840;48.892;15.312;2024-02-23T06:47:23;4.80;99.90
3648;DHT22;1840;48.892;15.312;2024-02-23T06:49:52;4.50;99.90
3648;DHT22;1840;48.892;15.312;2024-02-23T06:52:20;4.10;99.90
3648;DHT22;1840;48.892;15.312;2024-02-23T06:54:52;3.80;99.90
3648;DHT22;1840;48.892;15.312;2024-02-23T06:57:21;3.50;99.90
3648;DHT22;1840;48.892;15.312;2024-02-23T06:59:54;3.40;99.90
3648;DHT22;1840;48.892;15.312;2024-02-23T07:02:22;3.60;99.90
3648;DHT22;1840;48.892;15.312;2024-02-23T07:04:51;3.80;99.90
3648;DHT22;1840;48.892;15.312;2024-02-23T07:07:21;3.90;99.90
3648;DHT22;1840;48.892;15.312;2024-02-23T07:09:53;4.00;99.90
3648;DHT22;1840;48.892;15.312;2024-02-23T07:12:22;4.20;99.90
3648;DHT22;1840;48.892;15.312;2024-02-23T07:14:54;4.30;99.90
3648;DHT22;1840;48.892;15.312;2024-02-23T07:17:23;4.40;99.90
3648;DHT22;1840;48.892;15.312;2024-02-23T07:19:51;4.40;99.90
3648;DHT22;1840;48.892;15.312;2024-02-23T07:22:20;4.40;99.90
3648;DHT22;1840;48.892;15.312;2024-02-23T07:24:48;4.40;99.90
3648;DHT22;1840;48.892;15.312;2024-02-23T07:27:17;4.40;99.90
3648;DHT22;1840;48.892;15.312;2024-02-23T07:29:45;4.40;99.90
3648;DHT22;1840;48.892;15.312;2024-02-23T07:32:16;4.60;99.90
3648;DHT22;1840;48.892;15.312;2024-02-23T07:34:45;4.60;99.90
3648;DHT22;1840;48.892;15.312;2024-02-23T07:37:13;4.60;99.90
3648;DHT22;1840;48.892;15.312;2024-02-23T07:39:42;4.70;99.90
3648;DHT22;1840;48.892;15.312;2024-02-23T07:42:10;4.70;99.90
3648;DHT22;1840;48.892;15.312;2024-02-23T07:44:41;4.80;99.90
3648;DHT22;1840;48.892;15.312;2024-02-23T07:47:09;4.70;99.90
3648;DHT22;1840;48.892;15.312;2024-02-23T07:49:39;4.80;99.90
3648;DHT22;1840;48.892;15.312;2024-02-23T07:52:09;4.60;99.90
3648;DHT22;1840;48.892;15.312;2024-02-23T07:54:37;4.60;99.90
3648;DHT22;1840;48.892;15.312;2024-02-23T07:57:06;4.70;99.90
3648;DHT22;1840;48.892;15.312;2024-02-23T07:59:34;4.80;99.90
3648;DHT22;1840;48.892;15.312;2024-02-23T08:02:03;4.80;99.90
3648;DHT22;1840;48.892;15.312;2024-02-23T08:04:32;4.80;99.90
3648;DHT22;1840;48.892;15.312;2024-02-23T08:07:02;4.80;99.90
3648;DHT22;1840;48.892;15.312;2024-02-23T08:09:31;4.90;99.90
3648;DHT22;1840;48.892;15.312;2024-02-23T08:11:59;4.80;99.90
3648;DHT22;1840;48.892;15.312;2024-02-23T08:14:28;4.70;99.90
3648;DHT22;1840;48.892;15.312;2024-02-23T08:16:56;4.80;99.90
3648;DHT22;1840;48.892;15.312;2024-02-23T08:19:25;4.60;99.90
3648;DHT22;1840;48.892;15.312;2024-02-23T08:21:53;4.70;99.90
3648;DHT22;1840;48.892;15.312;2024-02-23T08:24:23;4.70;99.90
3648;DHT22;1840;48.892;15.312;2024-02-23T08:26:53;4.60;99.90
3648;DHT22;1840;48.892;15.312;2024-02-23T08:29:22;4.70;99.90
3648;DHT22;1840;48.892;15.312;2024-02-23T08:31:50;4.70;99.90
3648;DHT22;1840;48.892;15.312;2024-02-23T08:34:19;4.70;99.90
3648;DHT22;1840;48.892;15.312;2024-02-23T08:36:48;4.80;99.90
3648;DHT22;1840;48.892;15.312;2024-02-23T08:39:16;4.70;99.90
3648;DHT22;1840;48.892;15.312;2024-02-23T08:41:47;4.70;99.90
3648;DHT22;1840;48.892;15.312;2024-02-23T08:44:15;4.50;99.90
3648;DHT22;1840;48.892;15.312;2024-02-23T08:46:44;4.60;99.90
3648;DHT22;1840;48.892;15.312;2024-02-23T08:49:12;4.60;99.90
3648;DHT22;1840;48.892;15.312;2024-02-23T08:51:42;4.80;99.90
3648;DHT22;1840;48.892;15.312;2024-02-23T08:54:10;4.90;99.90
3648;DHT22;1840;48.892;15.312;2024-02-23T08:56:39;5.00;99.90
3648;DHT22;1840;48.892;15.312;2024-02-23T08:59:10;5.10;99.90
3648;DHT22;1840;48.892;15.312;2024-02-23T09:01:39;5.10;99.90
3648;DHT22;1840;48.892;15.312;2024-02-23T09:04:07;5.20;99.90
3648;DHT22;1840;48.892;15.312;2024-02-23T09:06:36;5.30;99.90
3648;DHT22;1840;48.892;15.312;2024-02-23T09:09:06;5.30;99.90
3648;DHT22;1840;48.892;15.312;2024-02-23T09:11:35;5.50;99.90
3648;DHT22;1840;48.892;15.312;2024-02-23T09:14:05;5.60;99.90
3648;DHT22;1840;48.892;15.312;2024-02-23T09:16:34;5.60;99.90
3648;DHT22;1840;48.892;15.312;2024-02-23T09:19:03;5.60;99.90
3648;DHT22;1840;48.892;15.312;2024-02-23T09:21:31;5.50;99.90
3648;DHT22;1840;48.892;15.312;2024-02-23T09:24:00;5.70;99.90
3648;DHT22;1840;48.892;15.312;2024-02-23T09:26:29;5.60;99.90
3648;DHT22;1840;48.892;15.312;2024-02-23T09:28:58;5.60;99.90
3648;DHT22;1840;48.892;15.312;2024-02-23T09:31:27;5.50;99.90
3648;DHT22;1840;48.892;15.312;2024-02-23T09:34:01;5.50;99.90
3648;DHT22;1840;48.892;15.312;2024-02-23T09:36:30;5.60;99.90
3648;DHT22;1840;48.892;15.312;2024-02-23T09:38:58;5.50;99.90
3648;DHT22;1840;48.892;15.312;2024-02-23T09:41:29;5.60;99.90
3648;DHT22;1840;48.892;15.312;2024-02-23T09:43:58;5.50;99.90
3648;DHT22;1840;48.892;15.312;2024-02-23T09:46:28;5.60;99.90
3648;DHT22;1840;48.892;15.312;2024-02-23T09:48:59;5.50;99.90
3648;DHT22;1840;48.892;15.312;2024-02-23T09:51:32;5.40;99.90
3648;DHT22;1840;48.892;15.312;2024-02-23T09:54:02;5.30;99.90
3648;DHT22;1840;48.892;15.312;2024-02-23T09:56:31;5.40;99.90
3648;DHT22;1840;48.892;15.312;2024-02-23T09:59:02;5.40;99.90
3648;DHT22;1840;48.892;15.312;2024-02-23T10:01:32;5.40;99.90
3648;DHT22;1840;48.892;15.312;2024-02-23T10:04:03;5.50;99.90
3648;DHT22;1840;48.892;15.312;2024-02-23T10:06:34;5.50;99.90
3648;DHT22;1840;48.892;15.312;2024-02-23T10:09:03;5.30;99.90
3648;DHT22;1840;48.892;15.312;2024-02-23T10:11:32;5.20;99.90
3648;DHT22;1840;48.892;15.312;2024-02-23T10:14:01;5.10;99.90
3648;DHT22;1840;48.892;15.312;2024-02-23T10:16:31;5.40;99.90
3648;DHT22;1840;48.892;15.312;2024-02-23T10:19:03;5.70;99.90
3648;DHT22;1840;48.892;15.312;2024-02-23T10:21:33;5.80;99.90
3648;DHT22;1840;48.892;15.312;2024-02-23T10:24:04;6.20;99.30
3648;DHT22;1840;48.892;15.312;2024-02-23T10:26:33;5.90;98.50
3648;DHT22;1840;48.892;15.312;2024-02-23T10:29:02;5.80;99.10
3648;DHT22;1840;48.892;15.312;2024-02-23T10:31:35;5.70;99.30
3648;DHT22;1840;48.892;15.312;2024-02-23T10:34:08;5.80;99.10
3648;DHT22;1840;48.892;15.312;2024-02-23T10:36:40;5.50;98.10
3648;DHT22;1840;48.892;15.312;2024-02-23T10:39:09;5.10;99.00
3648;DHT22;1840;48.892;15.312;2024-02-23T10:41:40;4.80;98.60
3648;DHT22;1840;48.892;15.312;2024-02-23T10:44:12;4.70;98.70
3648;DHT22;1840;48.892;15.312;2024-02-23T10:46:43;4.70;98.90
3648;DHT22;1840;48.892;15.312;2024-02-23T10:49:15;4.80;98.60
3648;DHT22;1840;48.892;15.312;2024-02-23T10:51:44;4.60;98.10
3648;DHT22;1840;48.892;15.312;2024-02-23T10:54:14;4.70;98.40
3648;DHT22;1840;48.892;15.312;2024-02-23T10:56:48;4.60;98.30
3648;DHT22;1840;48.892;15.312;2024-02-23T10:59:18;4.60;98.70
3648;DHT22;1840;48.892;15.312;2024-02-23T11:01:48;4.70;98.60
3648;DHT22;1840;48.892;15.312;2024-02-23T11:04:19;4.90;98.20
3648;DHT22;1840;48.892;15.312;2024-02-23T11:06:50;4.80;98.20
3648;DHT22;1840;48.892;15.312;2024-02-23T11:09:21;4.60;98.10
3648;DHT22;1840;48.892;15.312;2024-02-23T11:11:53;4.60;98.30
3648;DHT22;1840;48.892;15.312;2024-02-23T11:14:34;4.80;98.60
3648;DHT22;1840;48.892;15.312;2024-02-23T11:17:03;5.00;98.30
3648;DHT22;1840;48.892;15.312;2024-02-23T11:19:34;5.20;98.70
3648;DHT22;1840;48.892;15.312;2024-02-23T11:22:04;5.30;98.60
3648;DHT22;1840;48.892;15.312;2024-02-23T11:24:43;5.30;98.40
3648;DHT22;1840;48.892;15.312;2024-02-23T11:27:14;5.20;98.40
3648;DHT22;1840;48.892;15.312;2024-02-23T11:29:45;5.00;98.10
3648;DHT22;1840;48.892;15.312;2024-02-23T11:32:14;4.90;98.30
3648;DHT22;1840;48.892;15.312;2024-02-23T11:34:55;4.90;98.30
3648;DHT22;1840;48.892;15.312;2024-02-23T11:37:28;4.90;98.30
3648;DHT22;1840;48.892;15.312;2024-02-23T11:39:57;4.90;98.50
3648;DHT22;1840;48.892;15.312;2024-02-23T11:42:28;4.80;98.70
3648;DHT22;1840;48.892;15.312;2024-02-23T11:44:58;4.70;98.60
3648;DHT22;1840;48.892;15.312;2024-02-23T11:47:27;4.60;99.00
3648;DHT22;1840;48.892;15.312;2024-02-23T11:49:57;4.70;99.30
3648;DHT22;1840;48.892;15.312;2024-02-23T11:52:26;4.80;99.00
3648;DHT22;1840;48.892;15.312;2024-02-23T11:54:54;4.90;98.80
3648;DHT22;1840;48.892;15.312;2024-02-23T11:57:25;4.90;98.70
3648;DHT22;1840;48.892;15.312;2024-02-23T12:00:01;4.80;98.90
3648;DHT22;1840;48.892;15.312;2024-02-23T12:02:30;4.80;99.00
3648;DHT22;1840;48.892;15.312;2024-02-23T12:05:00;4.90;98.90
3648;DHT22;1840;48.892;15.312;2024-02-23T12:07:29;5.00;99.00
3648;DHT22;1840;48.892;15.312;2024-02-23T12:09:57;4.90;98.50
3648;DHT22;1840;48.892;15.312;2024-02-23T12:12:26;4.90;98.60
3648;DHT22;1840;48.892;15.312;2024-02-23T12:14:55;4.90;99.00
3648;DHT22;1840;48.892;15.312;2024-02-23T12:17:24;5.10;98.50
3648;DHT22;1840;48.892;15.312;2024-02-23T12:20:00;5.10;98.60
3648;DHT22;1840;48.892;15.312;2024-02-23T12:22:28;5.20;98.60
3648;DHT22;1840;48.892;15.312;2024-02-23T12:24:57;5.20;98.90
3648;DHT22;1840;48.892;15.312;2024-02-23T12:27:26;5.10;98.50
3648;DHT22;1840;48.892;15.312;2024-02-23T12:29:57;5.20;98.90
3648;DHT22;1840;48.892;15.312;2024-02-23T12:32:26;5.40;99.00
3648;DHT22;1840;48.892;15.312;2024-02-23T12:34:55;5.20;98.80
3648;DHT22;1840;48.892;15.312;2024-02-23T12:37:25;5.30;99.10
3648;DHT22;1840;48.892;15.312;2024-02-23T12:39:54;5.10;99.20
3648;DHT22;1840;48.892;15.312;2024-02-23T12:42:22;5.10;99.30
3648;DHT22;1840;48.892;15.312;2024-02-23T12:44:51;5.10;99.50
3648;DHT22;1840;48.892;15.312;2024-02-23T12:47:19;5.30;99.70
3648;DHT22;1840;48.892;15.312;2024-02-23T12:49:47;5.20;99.50
3648;DHT22;1840;48.892;15.312;2024-02-23T12:52:16;5.10;99.40
3648;DHT22;1840;48.892;15.312;2024-02-23T12:54:46;5.00;99.50
3648;DHT22;1840;48.892;15.312;2024-02-23T12:57:18;4.90;99.80
3648;DHT22;1840;48.892;15.312;2024-02-23T12:59:46;4.90;99.70
3648;DHT22;1840;48.892;15.312;2024-02-23T13:02:15;5.00;99.90
3648;DHT22;1840;48.892;15.312;2024-02-23T13:04:43;5.10;99.90
3648;DHT22;1840;48.892;15.312;2024-02-23T13:07:16;5.20;99.80
3648;DHT22;1840;48.892;15.312;2024-02-23T13:09:46;5.20;99.90
3648;DHT22;1840;48.892;15.312;2024-02-23T13:12:14;5.20;99.90
3648;DHT22;1840;48.892;15.312;2024-02-23T13:14:43;5.10;98.90
3648;DHT22;1840;48.892;15.312;2024-02-23T13:17:11;4.70;99.20
3648;DHT22;1840;48.892;15.312;2024-02-23T13:19:40;4.70;99.10
3648;DHT22;1840;48.892;15.312;2024-02-23T13:22:19;4.80;99.30
3648;DHT22;1840;48.892;15.312;2024-02-23T13:24:50;5.00;99.40
3648;DHT22;1840;48.892;15.312;2024-02-23T13:27:18;4.90;99.10
3648;DHT22;1840;48.892;15.312;2024-02-23T13:29:47;4.90;99.20
3648;DHT22;1840;48.892;15.312;2024-02-23T13:32:15;5.00;99.20
3648;DHT22;1840;48.892;15.312;2024-02-23T13:34:44;5.00;99.50
3648;DHT22;1840;48.892;15.312;2024-02-23T13:37:12;4.90;99.30
3648;DHT22;1840;48.892;15.312;2024-02-23T13:39:41;5.00;99.30
3648;DHT22;1840;48.892;15.312;2024-02-23T13:42:11;4.90;99.10
3648;DHT22;1840;48.892;15.312;2024-02-23T13:44:39;4.90;99.20
3648;DHT22;1840;48.892;15.312;2024-02-23T13:47:08;5.00;99.60
3648;DHT22;1840;48.892;15.312;2024-02-23T13:49:36;5.00;99.50
3648;DHT22;1840;48.892;15.312;2024-02-23T13:52:05;5.00;99.80
3648;DHT22;1840;48.892;15.312;2024-02-23T13:54:33;4.80;99.90
3648;DHT22;1840;48.892;15.312;2024-02-23T13:57:02;4.70;99.90
3648;DHT22;1840;48.892;15.312;2024-02-23T13:59:32;4.50;99.90
3648;DHT22;1840;48.892;15.312;2024-02-23T14:02:00;4.40;99.90
3648;DHT22;1840;48.892;15.312;2024-02-23T14:04:29;4.40;99.90
3648;DHT22;1840;48.892;15.312;2024-02-23T14:06:58;4.50;99.90
3648;DHT22;1840;48.892;15.312;2024-02-23T14:09:26;4.40;99.90
3648;DHT22;1840;48.892;15.312;2024-02-23T14:11:55;4.50;99.90
3648;DHT22;1840;48.892;15.312;2024-02-23T14:14:23;4.60;99.90
3648;DHT22;1840;48.892;15.312;2024-02-23T14:16:53;4.60;99.90
3648;DHT22;1840;48.892;15.312;2024-02-23T14:19:22;4.50;99.90
3648;DHT22;1840;48.892;15.312;2024-02-23T14:21:52;4.70;99.90
3648;DHT22;1840;48.892;15.312;2024-02-23T14:24:20;4.60;99.90
3648;DHT22;1840;48.892;15.312;2024-02-23T14:26:49;4.70;99.90
3648;DHT22;1840;48.892;15.312;2024-02-23T14:29:17;4.70;99.90
3648;DHT22;1840;48.892;15.312;2024-02-23T14:31:48;4.80;99.90
3648;DHT22;1840;48.892;15.312;2024-02-23T14:34:18;4.80;99.90
3648;DHT22;1840;48.892;15.312;2024-02-23T14:36:47;4.80;99.90
3648;DHT22;1840;48.892;15.312;2024-02-23T14:39:15;4.80;99.90
3648;DHT22;1840;48.892;15.312;2024-02-23T14:41:44;4.80;99.90
3648;DHT22;1840;48.892;15.312;2024-02-23T14:44:12;4.80;99.90
3648;DHT22;1840;48.892;15.312;2024-02-23T14:46:41;4.80;99.90
3648;DHT22;1840;48.892;15.312;2024-02-23T14:49:10;4.70;99.90
3648;DHT22;1840;48.892;15.312;2024-02-23T14:51:40;4.70;99.90
3648;DHT22;1840;48.892;15.312;2024-02-23T14:54:10;4.70;99.90
3648;DHT22;1840;48.892;15.312;2024-02-23T14:56:38;4.60;99.90
3648;DHT22;1840;48.892;15.312;2024-02-23T14:59:07;4.60;99.90
3648;DHT22;1840;48.892;15.312;2024-02-23T15:01:37;4.60;99.90
3648;DHT22;1840;48.892;15.312;2024-02-23T15:04:08;4.50;99.90
3648;DHT22;1840;48.892;15.312;2024-02-23T15:06:37;4.50;99.90
3648;DHT22;1840;48.892;15.312;2024-02-23T15:09:07;4.40;99.90
3648;DHT22;1840;48.892;15.312;2024-02-23T15:11:35;4.30;99.90
3648;DHT22;1840;48.892;15.312;2024-02-23T15:14:04;4.30;99.90
3648;DHT22;1840;48.892;15.312;2024-02-23T15:16:32;4.20;99.90
3648;DHT22;1840;48.892;15.312;2024-02-23T15:19:01;4.10;99.90
3648;DHT22;1840;48.892;15.312;2024-02-23T15:21:31;4.10;99.90
3648;DHT22;1840;48.892;15.312;2024-02-23T15:24:02;4.00;99.90
3648;DHT22;1840;48.892;15.312;2024-02-23T15:26:32;4.10;99.90
3648;DHT22;1840;48.892;15.312;2024-02-23T15:29:01;4.10;99.90
3648;DHT22;1840;48.892;15.312;2024-02-23T15:31:31;4.00;99.90
3648;DHT22;1840;48.892;15.312;2024-02-23T15:33:59;3.90;99.90
3648;DHT22;1840;48.892;15.312;2024-02-23T15:36:29;3.90;99.90
3648;DHT22;1840;48.892;15.312;2024-02-23T15:38:57;3.90;99.90
3648;DHT22;1840;48.892;15.312;2024-02-23T15:41:33;3.90;99.90
3648;DHT22;1840;48.892;15.312;2024-02-23T15:44:02;3.80;99.90
3648;DHT22;1840;48.892;15.312;2024-02-23T15:46:31;3.70;99.90
3648;DHT22;1840;48.892;15.312;2024-02-23T15:48:59;3.60;99.90
3648;DHT22;1840;48.892;15.312;2024-02-23T15:51:48;3.50;99.90
3648;DHT22;1840;48.892;15.312;2024-02-23T15:54:26;3.50;99.90
3648;DHT22;1840;48.892;15.312;2024-02-23T15:56:58;3.60;99.90
3648;DHT22;1840;48.892;15.312;2024-02-23T15:59:28;3.60;99.90
3648;DHT22;1840;48.892;15.312;2024-02-23T16:01:58;3.60;99.90
3648;DHT22;1840;48.892;15.312;2024-02-23T16:04:29;3.50;99.90
3648;DHT22;1840;48.892;15.312;2024-02-23T16:06:57;3.50;99.90
3648;DHT22;1840;48.892;15.312;2024-02-23T16:09:26;3.30;99.90
3648;DHT22;1840;48.892;15.312;2024-02-23T16:11:54;3.30;99.90
3648;DHT22;1840;48.892;15.312;2024-02-23T16:14:24;3.10;99.90
3648;DHT22;1840;48.892;15.312;2024-02-23T16:16:53;3.10;99.90